Terminal Aerodrome Forecast
Issued by NWS

Home | Current Version | Previous Version | Graphics & Text | Print | Product List | Glossary On
Versions: 1 2 3 4 5 6 7 8 9 10 11 12 13 14 15 16 17 18 19 20 21 22 23 24 25 26 27 28 29 30 31 32 33 34 35 36 37 38 39 40 41
000
FTUS43 KGRB 090500
TAFRHI
TAF
KRHI 090532Z 0906/1006 32005KT P6SM SCT030 BKN100
      TEMPO 0906/0910 -RA SCT025 BKN035
     FM091000 30004KT P6SM VCSH SCT015 BKN035
     FM091500 30009KT P6SM BKN035
     FM091700 30009G17KT P6SM VCSH BKN030 BKN070
     FM100100 VRB03KT P6SM SCT070 SCT100=

USA.gov is the U.S. government's official web portal to all federal, state and local government web resources and services.